sensor_id;sensor_type;location;lat;lon;timestamp;pressure;altitude;pressure_sealevel;temperature;humidity
16431;BME280;8325;49.284;7.238;2023-05-10T04:03:56;98205.28;;;12.87;100.00
16431;BME280;8325;49.284;7.238;2023-05-10T04:08:08;98217.56;;;12.86;100.00
16431;BME280;8325;49.284;7.238;2023-05-10T04:12:20;98216.94;;;12.78;100.00
16431;BME280;8325;49.284;7.238;2023-05-10T04:16:31;98212.28;;;12.73;100.00
16431;BME280;8325;49.284;7.238;2023-05-10T04:20:43;98220.94;;;12.74;100.00
16431;BME280;8325;49.284;7.238;2023-05-10T04:24:54;98222.97;;;12.72;100.00
16431;BME280;8325;49.284;7.238;2023-05-10T04:29:06;98227.81;;;12.75;100.00
16431;BME280;8325;49.284;7.238;2023-05-10T04:33:18;98225.00;;;12.83;100.00
16431;BME280;8325;49.284;7.238;2023-05-10T04:37:29;98225.19;;;12.75;100.00
16431;BME280;8325;49.284;7.238;2023-05-10T04:41:41;98230.84;;;12.78;100.00
16431;BME280;8325;49.284;7.238;2023-05-10T04:45:52;98237.75;;;12.93;100.00
16431;BME280;8325;49.284;7.238;2023-05-10T04:50:07;98245.03;;;13.04;100.00
16431;BME280;8325;49.284;7.238;2023-05-10T04:54:19;98254.97;;;13.08;100.00
16431;BME280;8325;49.284;7.238;2023-05-10T04:58:31;98248.28;;;12.99;100.00
16431;BME280;8325;49.284;7.238;2023-05-10T05:02:43;98250.53;;;13.09;100.00
16431;BME280;8325;49.284;7.238;2023-05-10T05:06:56;98256.97;;;13.13;100.00
16431;BME280;8325;49.284;7.238;2023-05-10T05:11:08;98252.94;;;13.10;100.00
16431;BME280;8325;49.284;7.238;2023-05-10T05:15:19;98255.56;;;13.10;100.00
16431;BME280;8325;49.284;7.238;2023-05-10T05:19:31;98275.75;;;13.17;100.00
16431;BME280;8325;49.284;7.238;2023-05-10T05:23:43;98278.13;;;13.11;100.00
16431;BME280;8325;49.284;7.238;2023-05-10T05:27:54;98279.75;;;13.06;100.00
16431;BME280;8325;49.284;7.238;2023-05-10T05:32:06;98275.88;;;13.02;100.00
16431;BME280;8325;49.284;7.238;2023-05-10T05:36:19;98288.59;;;12.98;100.00
16431;BME280;8325;49.284;7.238;2023-05-10T05:40:31;98265.25;;;13.10;100.00
16431;BME280;8325;49.284;7.238;2023-05-10T05:44:43;98281.91;;;13.44;100.00
16431;BME280;8325;49.284;7.238;2023-05-10T05:48:54;98285.19;;;13.79;100.00
16431;BME280;8325;49.284;7.238;2023-05-10T05:53:06;98287.56;;;13.54;100.00
16431;BME280;8325;49.284;7.238;2023-05-10T05:57:17;98280.09;;;13.44;100.00
16431;BME280;8325;49.284;7.238;2023-05-10T06:01:29;98288.06;;;13.23;100.00
16431;BME280;8325;49.284;7.238;2023-05-10T06:05:40;98292.28;;;13.24;100.00
16431;BME280;8325;49.284;7.238;2023-05-10T06:09:52;98292.88;;;13.12;100.00
16431;BME280;8325;49.284;7.238;2023-05-10T06:14:04;98299.53;;;13.08;100.00
16431;BME280;8325;49.284;7.238;2023-05-10T06:18:15;98300.50;;;13.01;100.00
16431;BME280;8325;49.284;7.238;2023-05-10T06:22:28;98311.00;;;13.07;100.00
16431;BME280;8325;49.284;7.238;2023-05-10T06:26:39;98311.06;;;13.21;100.00
16431;BME280;8325;49.284;7.238;2023-05-10T06:30:51;98315.19;;;13.37;100.00
16431;BME280;8325;49.284;7.238;2023-05-10T06:35:03;98314.81;;;13.40;100.00
16431;BME280;8325;49.284;7.238;2023-05-10T06:39:14;98320.47;;;13.43;100.00
16431;BME280;8325;49.284;7.238;2023-05-10T06:43:26;98327.69;;;13.41;100.00
16431;BME280;8325;49.284;7.238;2023-05-10T06:47:40;98328.53;;;13.48;100.00
16431;BME280;8325;49.284;7.238;2023-05-10T06:51:51;98336.19;;;13.43;100.00
16431;BME280;8325;49.284;7.238;2023-05-10T06:56:03;98340.19;;;13.39;100.00
16431;BME280;8325;49.284;7.238;2023-05-10T07:00:15;98350.13;;;13.44;100.00
16431;BME280;8325;49.284;7.238;2023-05-10T07:04:27;98355.09;;;13.25;100.00
16431;BME280;8325;49.284;7.238;2023-05-10T07:08:39;98357.34;;;13.35;100.00
16431;BME280;8325;49.284;7.238;2023-05-10T07:12:50;98359.75;;;13.30;100.00
16431;BME280;8325;49.284;7.238;2023-05-10T07:17:03;98360.34;;;13.32;100.00
16431;BME280;8325;49.284;7.238;2023-05-10T07:21:15;98367.44;;;13.31;100.00
16431;BME280;8325;49.284;7.238;2023-05-10T07:25:26;98366.66;;;13.38;100.00
16431;BME280;8325;49.284;7.238;2023-05-10T07:29:38;98368.47;;;13.37;100.00
16431;BME280;8325;49.284;7.238;2023-05-10T07:33:50;98369.28;;;13.44;100.00
16431;BME280;8325;49.284;7.238;2023-05-10T07:38:01;98376.78;;;13.54;100.00
16431;BME280;8325;49.284;7.238;2023-05-10T07:42:13;98377.00;;;13.52;100.00
16431;BME280;8325;49.284;7.238;2023-05-10T07:46:25;98386.06;;;13.50;100.00
16431;BME280;8325;49.284;7.238;2023-05-10T07:50:37;98387.03;;;13.42;100.00
16431;BME280;8325;49.284;7.238;2023-05-10T07:54:48;98384.25;;;13.57;100.00
16431;BME280;8325;49.284;7.238;2023-05-10T07:59:00;98383.50;;;13.70;100.00
16431;BME280;8325;49.284;7.238;2023-05-10T08:03:12;98382.69;;;13.76;100.00
16431;BME280;8325;49.284;7.238;2023-05-10T08:07:24;98392.38;;;13.75;100.00
16431;BME280;8325;49.284;7.238;2023-05-10T08:11:36;98391.25;;;14.04;100.00
16431;BME280;8325;49.284;7.238;2023-05-10T08:15:48;98391.47;;;14.36;100.00
16431;BME280;8325;49.284;7.238;2023-05-10T08:20:00;98383.41;;;14.58;99.25
16431;BME280;8325;49.284;7.238;2023-05-10T08:24:11;98388.66;;;14.71;100.00
16431;BME280;8325;49.284;7.238;2023-05-10T08:28:23;98392.50;;;14.68;98.75
16431;BME280;8325;49.284;7.238;2023-05-10T08:32:34;98394.09;;;14.49;98.55
16431;BME280;8325;49.284;7.238;2023-05-10T08:36:46;98401.78;;;14.24;96.24
16431;BME280;8325;49.284;7.238;2023-05-10T08:40:58;98414.66;;;13.99;95.41
16431;BME280;8325;49.284;7.238;2023-05-10T08:45:11;98415.31;;;14.15;93.82
16431;BME280;8325;49.284;7.238;2023-05-10T08:49:23;98419.34;;;14.17;93.98
16431;BME280;8325;49.284;7.238;2023-05-10T08:53:37;98415.94;;;14.30;91.66
16431;BME280;8325;49.284;7.238;2023-05-10T08:57:48;98415.13;;;14.36;93.44
16431;BME280;8325;49.284;7.238;2023-05-10T09:02:01;98411.06;;;14.40;93.28
16431;BME280;8325;49.284;7.238;2023-05-10T09:06:13;98416.16;;;14.68;91.62
16431;BME280;8325;49.284;7.238;2023-05-10T09:10:26;98421.78;;;15.05;91.64
16431;BME280;8325;49.284;7.238;2023-05-10T09:14:39;98425.66;;;15.03;88.09
16431;BME280;8325;49.284;7.238;2023-05-10T09:18:51;98440.34;;;15.24;88.02
16431;BME280;8325;49.284;7.238;2023-05-10T09:23:03;98420.56;;;15.66;89.83
16431;BME280;8325;49.284;7.238;2023-05-10T09:27:14;98415.91;;;16.06;87.61
16431;BME280;8325;49.284;7.238;2023-05-10T09:31:48;98432.03;;;15.85;84.69
16431;BME280;8325;49.284;7.238;2023-05-10T09:36:08;98439.63;;;15.61;85.44
16431;BME280;8325;49.284;7.238;2023-05-10T09:40:25;98438.28;;;15.46;85.51
16431;BME280;8325;49.284;7.238;2023-05-10T09:44:36;98436.34;;;15.08;87.72
16431;BME280;8325;49.284;7.238;2023-05-10T09:48:49;98447.44;;;15.16;84.53
16431;BME280;8325;49.284;7.238;2023-05-10T09:53:02;98463.69;;;15.00;84.65
16431;BME280;8325;49.284;7.238;2023-05-10T09:57:22;98460.44;;;14.98;84.45
16431;BME280;8325;49.284;7.238;2023-05-10T10:01:34;98456.31;;;15.35;86.20
16431;BME280;8325;49.284;7.238;2023-05-10T10:05:47;98455.06;;;15.45;81.16
16431;BME280;8325;49.284;7.238;2023-05-10T10:10:00;98444.97;;;15.41;78.73
16431;BME280;8325;49.284;7.238;2023-05-10T10:14:12;98461.59;;;15.29;77.40
16431;BME280;8325;49.284;7.238;2023-05-10T10:18:24;98459.19;;;15.27;77.30
16431;BME280;8325;49.284;7.238;2023-05-10T10:22:39;98461.78;;;15.40;76.44
16431;BME280;8325;49.284;7.238;2023-05-10T10:26:52;98456.09;;;15.43;75.08
16431;BME280;8325;49.284;7.238;2023-05-10T10:31:25;98454.63;;;15.68;73.78
16431;BME280;8325;49.284;7.238;2023-05-10T10:35:41;98457.44;;;15.59;75.22
16431;BME280;8325;49.284;7.238;2023-05-10T10:39:55;98455.22;;;15.63;73.71
16431;BME280;8325;49.284;7.238;2023-05-10T10:48:38;98470.53;;;15.21;74.70
16431;BME280;8325;49.284;7.238;2023-05-10T10:52:50;98467.53;;;14.84;76.39
16431;BME280;8325;49.284;7.238;2023-05-10T10:57:11;98476.63;;;14.88;74.88
16431;BME280;8325;49.284;7.238;2023-05-10T11:01:32;98475.78;;;15.08;74.96
16431;BME280;8325;49.284;7.238;2023-05-10T11:05:46;98475.78;;;15.21;73.94
16431;BME280;8325;49.284;7.238;2023-05-10T11:10:04;98479.72;;;15.63;72.80
16431;BME280;8325;49.284;7.238;2023-05-10T11:14:20;98479.72;;;15.57;70.83
16431;BME280;8325;49.284;7.238;2023-05-10T11:18:32;98477.97;;;15.37;70.76
16431;BME280;8325;49.284;7.238;2023-05-10T11:22:54;98472.09;;;15.35;71.56
16431;BME280;8325;49.284;7.238;2023-05-10T11:27:07;98481.16;;;15.53;73.54
16431;BME280;8325;49.284;7.238;2023-05-10T11:31:19;98485.91;;;15.24;73.33
16431;BME280;8325;49.284;7.238;2023-05-10T11:35:37;98490.41;;;14.90;73.99
16431;BME280;8325;49.284;7.238;2023-05-10T11:39:54;98492.00;;;14.91;72.51
16431;BME280;8325;49.284;7.238;2023-05-10T11:44:09;98497.66;;;15.15;72.63
16431;BME280;8325;49.284;7.238;2023-05-10T11:48:21;98491.72;;;15.46;70.50
16431;BME280;8325;49.284;7.238;2023-05-10T11:52:36;98484.94;;;15.83;72.10
16431;BME280;8325;49.284;7.238;2023-05-10T11:56:49;98475.09;;;16.10;68.67
16431;BME280;8325;49.284;7.238;2023-05-10T12:01:03;98482.94;;;16.49;66.29
16431;BME280;8325;49.284;7.238;2023-05-10T12:05:16;98478.09;;;16.46;65.44
16431;BME280;8325;49.284;7.238;2023-05-10T12:09:28;98471.72;;;16.60;64.88
16431;BME280;8325;49.284;7.238;2023-05-10T12:13:54;98462.34;;;16.64;64.71
16431;BME280;8325;49.284;7.238;2023-05-10T12:18:09;98466.78;;;16.70;62.86
16431;BME280;8325;49.284;7.238;2023-05-10T12:22:22;98469.50;;;16.89;62.35
16431;BME280;8325;49.284;7.238;2023-05-10T12:26:35;98453.88;;;17.31;62.16
16431;BME280;8325;49.284;7.238;2023-05-10T12:30:47;98462.50;;;17.38;61.66
16431;BME280;8325;49.284;7.238;2023-05-10T12:34:59;98443.88;;;17.33;58.11
16431;BME280;8325;49.284;7.238;2023-05-10T12:39:11;98457.38;;;17.24;58.88
16431;BME280;8325;49.284;7.238;2023-05-10T12:43:23;98447.13;;;17.35;59.65
16431;BME280;8325;49.284;7.238;2023-05-10T12:47:36;98450.91;;;17.39;57.92
16431;BME280;8325;49.284;7.238;2023-05-10T12:51:50;98463.91;;;17.22;57.94
16431;BME280;8325;49.284;7.238;2023-05-10T12:56:02;98466.34;;;16.98;57.26
16431;BME280;8325;49.284;7.238;2023-05-10T13:00:14;98454.06;;;17.11;57.94
16431;BME280;8325;49.284;7.238;2023-05-10T13:04:26;98458.66;;;16.97;57.76
16431;BME280;8325;49.284;7.238;2023-05-10T13:08:38;98455.75;;;17.42;58.77
16431;BME280;8325;49.284;7.238;2023-05-10T13:12:50;98443.69;;;18.01;57.59
16431;BME280;8325;49.284;7.238;2023-05-10T13:17:02;98444.28;;;18.45;56.81
16431;BME280;8325;49.284;7.238;2023-05-10T13:21:14;98434.75;;;18.68;53.95
16431;BME280;8325;49.284;7.238;2023-05-10T13:25:26;98433.75;;;18.92;54.53
16431;BME280;8325;49.284;7.238;2023-05-10T13:29:38;98429.22;;;18.46;54.43
16431;BME280;8325;49.284;7.238;2023-05-10T13:33:49;98422.44;;;18.61;55.26
16431;BME280;8325;49.284;7.238;2023-05-10T13:38:01;98427.34;;;18.34;56.37
16431;BME280;8325;49.284;7.238;2023-05-10T13:42:13;98421.53;;;18.02;56.10
16431;BME280;8325;49.284;7.238;2023-05-10T13:46:25;98421.28;;;17.74;56.58
16431;BME280;8325;49.284;7.238;2023-05-10T13:50:36;98424.34;;;17.89;56.67
16431;BME280;8325;49.284;7.238;2023-05-10T13:54:48;98416.03;;;18.15;57.12
16431;BME280;8325;49.284;7.238;2023-05-10T13:59:00;98414.22;;;18.28;57.07
16431;BME280;8325;49.284;7.238;2023-05-10T14:03:11;98412.69;;;18.08;55.49
16431;BME280;8325;49.284;7.238;2023-05-10T14:07:23;98408.09;;;18.15;56.45
16431;BME280;8325;49.284;7.238;2023-05-10T14:11:35;98400.06;;;17.80;56.14
16431;BME280;8325;49.284;7.238;2023-05-10T14:15:46;98399.28;;;17.61;57.08
16431;BME280;8325;49.284;7.238;2023-05-10T14:19:58;98397.22;;;18.24;56.74
16431;BME280;8325;49.284;7.238;2023-05-10T14:24:09;98391.97;;;18.59;57.29
16431;BME280;8325;49.284;7.238;2023-05-10T14:28:21;98399.47;;;18.97;56.54
16431;BME280;8325;49.284;7.238;2023-05-10T14:32:34;98399.88;;;19.29;55.97
16431;BME280;8325;49.284;7.238;2023-05-10T14:36:47;98390.91;;;18.72;56.96
16431;BME280;8325;49.284;7.238;2023-05-10T14:40:59;98392.97;;;18.23;58.51
16431;BME280;8325;49.284;7.238;2023-05-10T14:45:10;98390.25;;;17.99;58.48
16431;BME280;8325;49.284;7.238;2023-05-10T14:49:23;98395.75;;;17.67;57.71
16431;BME280;8325;49.284;7.238;2023-05-10T14:53:36;98397.34;;;17.68;59.07
16431;BME280;8325;49.284;7.238;2023-05-10T14:57:48;98397.59;;;17.97;59.12
16431;BME280;8325;49.284;7.238;2023-05-10T15:02:01;98389.16;;;18.18;56.34
16431;BME280;8325;49.284;7.238;2023-05-10T15:06:14;98387.25;;;18.49;56.46
16431;BME280;8325;49.284;7.238;2023-05-10T15:10:27;98383.91;;;18.42;55.66
16431;BME280;8325;49.284;7.238;2023-05-10T15:14:39;98390.19;;;18.17;55.99
16431;BME280;8325;49.284;7.238;2023-05-10T15:18:51;98397.78;;;17.84;57.62
16431;BME280;8325;49.284;7.238;2023-05-10T15:23:02;98403.56;;;17.25;57.57
16431;BME280;8325;49.284;7.238;2023-05-10T15:27:14;98401.06;;;16.94;60.41
16431;BME280;8325;49.284;7.238;2023-05-10T15:31:26;98408.50;;;16.78;60.19
16431;BME280;8325;49.284;7.238;2023-05-10T15:35:38;98424.41;;;16.65;61.87
16431;BME280;8325;49.284;7.238;2023-05-10T15:39:50;98433.78;;;16.61;63.18
16431;BME280;8325;49.284;7.238;2023-05-10T15:44:02;98440.03;;;16.42;63.99
16431;BME280;8325;49.284;7.238;2023-05-10T15:48:14;98457.84;;;16.15;67.98
16431;BME280;8325;49.284;7.238;2023-05-10T15:52:25;98469.59;;;15.74;77.32
16431;BME280;8325;49.284;7.238;2023-05-10T15:56:37;98484.03;;;15.45;82.84
16431;BME280;8325;49.284;7.238;2023-05-10T16:00:49;98479.84;;;14.84;88.04
16431;BME280;8325;49.284;7.238;2023-05-10T16:05:01;98478.44;;;14.74;89.01
16431;BME280;8325;49.284;7.238;2023-05-10T16:09:12;98470.31;;;14.49;90.28
16431;BME280;8325;49.284;7.238;2023-05-10T16:13:24;98468.88;;;14.20;89.09
16431;BME280;8325;49.284;7.238;2023-05-10T16:17:36;98468.38;;;13.90;91.86
16431;BME280;8325;49.284;7.238;2023-05-10T16:21:48;98465.06;;;13.68;99.04
16431;BME280;8325;49.284;7.238;2023-05-10T16:26:00;98468.25;;;13.64;99.58
16431;BME280;8325;49.284;7.238;2023-05-10T16:30:11;98450.16;;;13.82;99.48
16431;BME280;8325;49.284;7.238;2023-05-10T16:34:23;98453.50;;;14.17;96.03
16431;BME280;8325;49.284;7.238;2023-05-10T16:38:35;98460.84;;;14.62;92.90
16431;BME280;8325;49.284;7.238;2023-05-10T16:42:48;98454.13;;;15.19;89.07
16431;BME280;8325;49.284;7.238;2023-05-10T16:46:59;98458.09;;;15.55;87.47
16431;BME280;8325;49.284;7.238;2023-05-10T16:51:11;98463.06;;;15.83;82.50
16431;BME280;8325;49.284;7.238;2023-05-10T16:55:22;98456.56;;;15.85;80.90
16431;BME280;8325;49.284;7.238;2023-05-10T16:59:36;98453.56;;;15.75;79.80
16431;BME280;8325;49.284;7.238;2023-05-10T17:03:48;98455.81;;;15.65;81.39
16431;BME280;8325;49.284;7.238;2023-05-10T17:08:00;98457.25;;;15.61;82.52
16431;BME280;8325;49.284;7.238;2023-05-10T17:12:11;98457.28;;;15.48;82.48
16431;BME280;8325;49.284;7.238;2023-05-10T17:16:23;98459.47;;;15.57;83.67
16431;BME280;8325;49.284;7.238;2023-05-10T17:20:35;98462.75;;;15.53;82.86
16431;BME280;8325;49.284;7.238;2023-05-10T17:24:46;98461.97;;;15.46;83.73
16431;BME280;8325;49.284;7.238;2023-05-10T17:28:58;98469.72;;;15.14;85.81
16431;BME280;8325;49.284;7.238;2023-05-10T17:33:09;98462.28;;;14.84;87.23
16431;BME280;8325;49.284;7.238;2023-05-10T17:37:21;98465.09;;;14.69;89.50
16431;BME280;8325;49.284;7.238;2023-05-10T17:41:33;98474.00;;;14.55;90.70
16431;BME280;8325;49.284;7.238;2023-05-10T17:45:46;98472.31;;;14.34;93.34
16431;BME280;8325;49.284;7.238;2023-05-10T17:49:58;98467.84;;;14.21;94.25
16431;BME280;8325;49.284;7.238;2023-05-10T17:54:09;98470.69;;;14.13;94.60
16431;BME280;8325;49.284;7.238;2023-05-10T17:58:21;98474.91;;;14.08;94.93
16431;BME280;8325;49.284;7.238;2023-05-10T18:02:34;98479.03;;;13.82;96.49
16431;BME280;8325;49.284;7.238;2023-05-10T18:06:47;98486.88;;;13.75;96.84
16431;BME280;8325;49.284;7.238;2023-05-10T18:10:59;98479.16;;;13.61;96.54
16431;BME280;8325;49.284;7.238;2023-05-10T18:15:11;98487.19;;;13.52;94.09
16431;BME280;8325;49.284;7.238;2023-05-10T18:19:22;98483.53;;;13.47;93.21
16431;BME280;8325;49.284;7.238;2023-05-10T18:23:37;98492.34;;;13.39;92.62
16431;BME280;8325;49.284;7.238;2023-05-10T18:27:49;98495.56;;;13.34;91.51
16431;BME280;8325;49.284;7.238;2023-05-10T18:32:00;98492.84;;;13.21;93.26
16431;BME280;8325;49.284;7.238;2023-05-10T18:36:12;98501.91;;;13.19;94.32
16431;BME280;8325;49.284;7.238;2023-05-10T18:40:25;98503.19;;;13.29;94.77
16431;BME280;8325;49.284;7.238;2023-05-10T18:44:37;98498.69;;;13.23;92.82
16431;BME280;8325;49.284;7.238;2023-05-10T18:48:48;98499.25;;;13.12;91.37
16431;BME280;8325;49.284;7.238;2023-05-10T18:53:00;98498.94;;;13.00;91.80
16431;BME280;8325;49.284;7.238;2023-05-10T18:57:11;98502.41;;;12.79;93.73
16431;BME280;8325;49.284;7.238;2023-05-10T19:01:24;98498.50;;;12.69;93.71
16431;BME280;8325;49.284;7.238;2023-05-10T19:05:35;98508.69;;;12.57;94.91
16431;BME280;8325;49.284;7.238;2023-05-10T19:09:47;98515.84;;;12.48;95.58
16431;BME280;8325;49.284;7.238;2023-05-10T19:13:59;98515.50;;;12.36;97.58
16431;BME280;8325;49.284;7.238;2023-05-10T19:18:11;98519.31;;;12.34;97.44
16431;BME280;8325;49.284;7.238;2023-05-10T19:22:23;98525.22;;;12.21;97.93
16431;BME280;8325;49.284;7.238;2023-05-10T19:26:53;98531.56;;;12.12;97.47
16431;BME280;8325;49.284;7.238;2023-05-10T19:31:06;98537.16;;;12.09;96.10
16431;BME280;8325;49.284;7.238;2023-05-10T19:35:18;98540.09;;;11.99;96.94
16431;BME280;8325;49.284;7.238;2023-05-10T19:39:29;98543.78;;;11.90;97.12
16431;BME280;8325;49.284;7.238;2023-05-10T19:43:42;98544.97;;;11.87;96.58
16431;BME280;8325;49.284;7.238;2023-05-10T19:47:54;98540.44;;;11.81;96.19
16431;BME280;8325;49.284;7.238;2023-05-10T19:52:06;98541.00;;;11.62;96.91
16431;BME280;8325;49.284;7.238;2023-05-10T19:56:22;98546.84;;;11.49;97.87
16431;BME280;8325;49.284;7.238;2023-05-10T20:00:34;98553.50;;;11.37;100.00
16431;BME280;8325;49.284;7.238;2023-05-10T20:04:45;98554.75;;;11.26;100.00
16431;BME280;8325;49.284;7.238;2023-05-10T20:08:57;98558.63;;;11.15;100.00
16431;BME280;8325;49.284;7.238;2023-05-10T20:13:09;98562.19;;;11.14;100.00
16431;BME280;8325;49.284;7.238;2023-05-10T20:17:20;98568.72;;;10.95;100.00
16431;BME280;8325;49.284;7.238;2023-05-10T20:21:32;98568.94;;;10.94;100.00
16431;BME280;8325;49.284;7.238;2023-05-10T20:25:44;98571.59;;;10.86;100.00
16431;BME280;8325;49.284;7.238;2023-05-10T20:29:55;98577.69;;;10.78;100.00
16431;BME280;8325;49.284;7.238;2023-05-10T20:34:07;98572.00;;;10.74;100.00
16431;BME280;8325;49.284;7.238;2023-05-10T20:38:18;98580.53;;;10.68;100.00
16431;BME280;8325;49.284;7.238;2023-05-10T20:42:30;98574.69;;;10.66;100.00
16431;BME280;8325;49.284;7.238;2023-05-10T20:46:42;98579.94;;;10.58;100.00
16431;BME280;8325;49.284;7.238;2023-05-10T20:50:53;98576.56;;;10.49;100.00
16431;BME280;8325;49.284;7.238;2023-05-10T20:55:05;98569.94;;;10.39;100.00
16431;BME280;8325;49.284;7.238;2023-05-10T20:59:17;98578.63;;;10.31;100.00
16431;BME280;8325;49.284;7.238;2023-05-10T21:03:29;98584.69;;;10.23;100.00
16431;BME280;8325;49.284;7.238;2023-05-10T21:07:40;98578.69;;;10.14;100.00
16431;BME280;8325;49.284;7.238;2023-05-10T21:11:52;98584.03;;;10.21;100.00
16431;BME280;8325;49.284;7.238;2023-05-10T21:16:04;98586.34;;;10.16;100.00
16431;BME280;8325;49.284;7.238;2023-05-10T21:20:15;98583.31;;;10.04;100.00
16431;BME280;8325;49.284;7.238;2023-05-10T21:24:27;98584.13;;;10.05;100.00
16431;BME280;8325;49.284;7.238;2023-05-10T21:28:39;98582.84;;;10.01;100.00
